Flight Track Log - Related Links

Times and Time Zones

All times are in EDT time to prevent confusion due to time zone crossing. See the SWA1319 flight status page for this flight to view local times or setup timezone preferences in your user account.

Time Position Orientation Groundspeed Altitude Reporting Facility
EDT Latitude Longitude Course Direction KTS MPH feet Rate Location/Type
Fri 04:17:44 PM 32.9000 -96.9167 314° West 216 249 4,000  Level Dallas / Fort Worth TRACON
Fri 04:19:27 PM 32.9808 -97.0097 316° Northwest 244 281 9,200 2,488 Climbing Fort Worth Center
Fri 04:20:28 PM 33.0561 -97.0217 352° North 239 275 10,800 1,900 Climbing Fort Worth Center
Fri 04:21:27 PM 33.1500 -97.0414 350° North 301 346 13,000 2,067 Climbing Fort Worth Center
Fri 04:22:27 PM 33.2419 -97.0483 356° North 327 376 14,900 2,050 Climbing Fort Worth Center
Fri 04:23:27 PM 33.3464 -97.0156 15° North 352 405 17,100 2,000 Climbing Fort Worth Center
Fri 04:24:27 PM 33.4506 -96.9828 15° North 374 430 18,900 1,800 Climbing Fort Worth Center
Fri 04:25:27 PM 33.5569 -96.9472 16° North 379 436 20,700 1,785 Climbing Fort Worth Center
Fri 04:26:28 PM 33.6672 -96.9144 14° North 396 456 22,500 1,650 Climbing Fort Worth Center
Fri 04:27:27 PM 33.7800 -96.8786 15° North 410 472 24,000 1,412 Climbing Fort Worth Center
Fri 04:28:27 PM 33.8925 -96.8431 15° North 417 480 25,300 1,388 Climbing Fort Worth Center
Fri 04:29:28 PM 34.0111 -96.8047 15° North 417 480 26,800 1,650 Climbing Fort Worth Center
Fri 04:30:27 PM 34.1217 -96.7711 14° North 417 480 28,600 1,613 Climbing Fort Worth Center
Fri 04:31:27 PM 34.2342 -96.7353 15° North 411 473 30,000 1,140 Climbing Fort Worth Center
Fri 04:32:28 PM 34.3486 -96.6992 15° North 411 473 30,900 1,050 Climbing Fort Worth Center
Fri 04:33:27 PM 34.4653 -96.6578 16° North 416 479 32,100 1,261 Climbing Fort Worth Center
Fri 04:34:27 PM 34.5797 -96.6217 15° North 421 484 33,400 942 Climbing Fort Worth Center
Fri 04:35:28 PM 34.6986 -96.5850 14° North 421 484 34,000 650 Climbing Fort Worth Center
Fri 04:36:27 PM 34.8150 -96.5436 16° North 426 490 34,700 504 Climbing Fort Worth Center
Fri 04:37:27 PM 34.9336 -96.5042 15° North 431 496 35,000 149 Climbing Fort Worth Center
Fri 04:38:28 PM 35.0544 -96.4650 15° North 436 502 35,000  Level Fort Worth Center
Fri 04:39:28 PM 35.1750 -96.4256 15° North 436 502 35,000  Level Fort Worth Center
Fri 04:40:27 PM 35.2936 -96.3861 15° North 436 502 35,000  Level Fort Worth Center
Fri 04:42:34 PM 35.5231 -96.3103 15° North 438 504 35,000  Level Kansas City Center
Fri 04:43:35 PM 35.6392 -96.2711 15° North 436 502 35,000  Level Kansas City Center
Fri 04:44:36 PM 35.7781 -96.2244 15° North 434 499 35,000  Level Kansas City Center
Fri 04:45:40 PM 35.8958 -96.1858 15° North 434 499 35,000  Level Kansas City Center
Fri 04:46:41 PM 36.0128 -96.1472 15° North 433 498 35,000  Level Kansas City Center
Fri 04:47:42 PM 36.1303 -96.1078 15° North 434 499 35,000  Level Kansas City Center
Fri 04:48:46 PM 36.2478 -96.0681 15° North 434 499 35,000  Level Kansas City Center
Fri 04:49:46 PM 36.3639 -96.0286 15° North 430 495 35,000  Level Kansas City Center
Fri 04:50:50 PM 36.4803 -95.9894 15° North 429 494 35,000  Level Kansas City Center
Fri 04:51:51 PM 36.6197 -95.9428 15° North 428 493 35,000 -97 Level Kansas City Center
Fri 04:52:54 PM 36.7367 -95.9019 16° North 430 495 34,800 -581 Descending Kansas City Center
Fri 04:53:55 PM 36.8522 -95.8619 15° North 429 494 33,800 -864 Descending Kansas City Center
Fri 04:54:59 PM 36.9650 -95.8236 15° North 421 484 33,000 -387 Descending Kansas City Center
Fri 04:55:59 PM 37.0778 -95.7858 15° North 418 481 33,000  Level Kansas City Center
Fri 04:57:00 PM 37.1889 -95.7475 15° North 414 476 33,000  Level Kansas City Center
Fri 04:58:04 PM 37.3008 -95.7075 16° North 415 478 33,000  Level Kansas City Center
Fri 04:59:07 PM 37.4336 -95.6608 16° North 412 474 33,000  Level Kansas City Center
Fri 05:00:08 PM 37.5442 -95.6206 16° North 412 474 33,000  Level Kansas City Center
Fri 05:01:12 PM 37.6544 -95.5847 14° North 409 471 33,000 -96 Level Kansas City Center
Fri 05:02:13 PM 37.7650 -95.5703 North 400 460 32,800 -590 Descending Kansas City Center
Fri 05:03:14 PM 37.8750 -95.5558 North 397 457 31,800 -960 Descending Kansas City Center
Fri 05:04:18 PM 37.9969 -95.5408 North 397 457 30,800 -919 Descending Kansas City Center
Fri 05:05:18 PM 38.1011 -95.5256 North 394 453 29,900 -1,790 Descending Kansas City Center
Fri 05:06:22 PM 38.2206 -95.5083 North 386 444 27,100 -2,688 Descending Kansas City Center
Fri 05:07:23 PM 38.3225 -95.4931 North 385 443 24,300 -2,803 Descending Kansas City Center
Fri 05:08:24 PM 38.4358 -95.4781 North 371 427 21,400 -2,516 Descending Kansas City Center
Fri 05:09:27 PM 38.5289 -95.4631 North 355 409 19,100 -2,352 Descending Kansas City Center
Fri 05:10:29 PM 38.6308 -95.4464 North 333 383 16,500 -2,352 Descending Kansas City Center
Fri 05:11:32 PM 38.7147 -95.4336 North 319 367 14,200 -1,935 Descending Kansas City Center
Fri 05:12:33 PM 38.8044 -95.3933 19° North 324 373 12,500 -1,082 Descending Kansas City Center
Fri 05:13:34 PM 38.8694 -95.3042 47° Northeast 356 410 12,000 -240 Descending Kansas City Center
Fri 05:14:38 PM 38.9464 -95.2056 45° Northeast 352 405 12,000 -48 Level Kansas City Center
Fri 05:15:40 PM 39.0092 -95.1144 48° Northeast 358 412 11,900 -49 Descending Kansas City Center
Fri 05:16:41 PM 39.0794 -95.0175 47° Northeast 332 382 11,900 -439 Level Kansas City Center
Fri 05:17:43 PM 39.1328 -94.9425 47° Northeast 304 350 11,000 -1,333 Descending Kansas City Center
Fri 05:18:47 PM 39.1747 -94.8406 62° Northeast 311 358 9,100 -1,500 Descending Kansas City Center
Fri 05:19:47 PM 39.1800 -94.7372 86° East 304 350 7,900 -984 Descending Kansas City Center
Fri 05:20:49 PM 39.1853 -94.6297 86° East 263 303 7,100 -816 Descending Kansas City Center
Fri 05:21:52 PM 39.1908 -94.5444 85° East 251 289 6,200 -968 Descending Kansas City Center
Fri 05:22:53 PM 39.2067 -94.4650 76° East 245 282 5,100 -927 Descending Kansas City Center
Fri 05:23:55 PM 39.2497 -94.4225 37° Northeast 189 217 4,300 -576 Descending Kansas City Center
Fri 05:24:58 PM 39.2667 -94.4689 295° West 150 173 3,900 -194 Descending Kansas City Center
Fri 05:25:59 PM 39.2733 -94.5317 278° West 159 183 3,900 -528 Level Kansas City Center
Fri 05:27:03 PM 39.2789 -94.5864 277° West 161 185 2,800 -1,016 Descending Kansas City Center
Fri 05:28:03 PM 39.2833 -94.6400 276° West 134 154 1,800 -787 Descending Kansas City Center
Fri 05:29:05 PM 39.2869 -94.6828 276° West 126 145 1,200 -581 Descending Kansas City Center

Login

Don't have an account? Register now (free) for customized features, flight alerts, and more!